createdAt,value
2023-05-02T00:00:31.861Z,100385.89
2023-05-02T00:02:59.106Z,100387.43
2023-05-02T00:05:26.277Z,100388.98
2023-05-02T00:07:53.161Z,100394.04
2023-05-02T00:10:19.936Z,100393.90
2023-05-02T00:12:46.672Z,100395.54
2023-05-02T00:15:13.383Z,100394.14
2023-05-02T00:17:41.888Z,100396.83
2023-05-02T00:20:10.662Z,100393.47
2023-05-02T00:22:37.830Z,100398.98
2023-05-02T00:25:05.123Z,100398.27
2023-05-02T00:27:32.222Z,100398.27
2023-05-02T00:30:00.655Z,100395.77
2023-05-02T00:32:27.710Z,100397.19
2023-05-02T00:34:54.569Z,100400.02
2023-05-02T00:37:21.470Z,100401.27
2023-05-02T00:39:48.206Z,100400.20
2023-05-02T00:42:14.850Z,100401.98
2023-05-02T00:44:41.562Z,100402.17
2023-05-02T00:47:08.479Z,100405.91
2023-05-02T00:49:35.187Z,100411.11
2023-05-02T00:52:02.689Z,100414.31
2023-05-02T00:54:29.370Z,100419.84
2023-05-02T00:56:57.573Z,100425.40
2023-05-02T00:59:24.686Z,100423.12
2023-05-02T01:02:03.578Z,100427.06
2023-05-02T01:04:36.561Z,100433.69
2023-05-02T01:07:21.556Z,100437.61
2023-05-02T01:09:54.385Z,100437.63
2023-05-02T01:12:25.423Z,100436.08
2023-05-02T01:14:55.127Z,100439.82
2023-05-02T01:17:25.017Z,100442.30
2023-05-02T01:19:54.139Z,100441.25
2023-05-02T01:22:20.829Z,100441.81
2023-05-02T01:24:54.162Z,100442.03
2023-05-02T01:27:28.216Z,100445.40
2023-05-02T01:29:54.958Z,100442.93
2023-05-02T01:32:22.765Z,100443.66
2023-05-02T01:34:49.452Z,100450.98
2023-05-02T01:37:16.155Z,100444.96
2023-05-02T01:39:42.903Z,100446.91
2023-05-02T01:42:09.595Z,100448.69
2023-05-02T01:44:36.672Z,100447.81
2023-05-02T01:47:05.443Z,100452.27
2023-05-02T01:49:32.908Z,100450.52
2023-05-02T01:52:03.882Z,100457.99
2023-05-02T01:54:30.611Z,100454.46
2023-05-02T01:56:57.250Z,100451.83
2023-05-02T01:59:24.007Z,100451.33
2023-05-02T02:01:51.702Z,100450.45
2023-05-02T02:04:19.585Z,100449.76
2023-05-02T02:06:48.926Z,100450.67
2023-05-02T02:09:15.685Z,100449.27
2023-05-02T02:11:44.501Z,100448.56
2023-05-02T02:14:19.288Z,100449.63
2023-05-02T02:16:45.938Z,100452.64
2023-05-02T02:19:13.711Z,100451.90
2023-05-02T02:21:41.170Z,100456.67
2023-05-02T02:24:07.951Z,100455.08
2023-05-02T02:26:35.311Z,100455.42
2023-05-02T02:29:02.064Z,100457.02
2023-05-02T02:31:36.017Z,100456.48
2023-05-02T02:34:02.815Z,100453.48
2023-05-02T02:36:51.153Z,100454.05
2023-05-02T02:39:20.380Z,100455.31
2023-05-02T02:42:30.925Z,100455.14
2023-05-02T02:45:19.428Z,100457.10
2023-05-02T02:48:16.537Z,100457.14
2023-05-02T02:51:01.879Z,100456.27
2023-05-02T02:53:47.323Z,100458.77
2023-05-02T02:56:16.000Z,100463.73
2023-05-02T02:59:02.090Z,100461.27
2023-05-02T03:01:31.418Z,100460.41
2023-05-02T03:03:58.384Z,100463.77
2023-05-02T03:06:25.322Z,100467.64
2023-05-02T03:08:52.440Z,100468.34
2023-05-02T03:11:19.386Z,100468.63
2023-05-02T03:13:47.316Z,100473.02
2023-05-02T03:16:30.628Z,100473.67
2023-05-02T03:18:57.433Z,100479.12
2023-05-02T03:21:24.427Z,100477.46
2023-05-02T03:23:52.067Z,100481.13
2023-05-02T03:26:19.018Z,100484.64
2023-05-02T03:28:48.971Z,100480.48
2023-05-02T03:31:16.236Z,100484.87
2023-05-02T03:33:42.914Z,100483.39
2023-05-02T03:36:09.629Z,100485.48
2023-05-02T03:38:36.287Z,100490.75
2023-05-02T03:41:04.190Z,100496.54
2023-05-02T03:43:31.150Z,100496.30
2023-05-02T03:45:58.081Z,100493.20
2023-05-02T03:48:25.449Z,100498.63
2023-05-02T03:50:52.313Z,100502.25
2023-05-02T03:53:19.010Z,100500.70
2023-05-02T03:55:48.896Z,100493.61
2023-05-02T03:58:18.234Z,100494.83
2023-05-02T04:00:45.322Z,100494.42
2023-05-02T04:03:12.627Z,100493.42
2023-05-02T04:05:42.559Z,100490.36
2023-05-02T04:08:10.899Z,100491.29
2023-05-02T04:10:37.853Z,100484.30
2023-05-02T04:13:06.484Z,100483.99
2023-05-02T04:15:34.114Z,100481.30
2023-05-02T04:18:01.251Z,100472.94
2023-05-02T04:20:29.059Z,100470.14
2023-05-02T04:22:55.838Z,100463.61
2023-05-02T04:25:22.559Z,100457.55
2023-05-02T04:27:50.850Z,100448.32
2023-05-02T04:30:20.617Z,100442.56
2023-05-02T04:32:57.005Z,100442.04
2023-05-02T04:35:24.901Z,100439.02
2023-05-02T04:37:51.900Z,100436.70
2023-05-02T04:40:19.059Z,100439.12
2023-05-02T04:42:48.008Z,100438.36
2023-05-02T04:45:18.711Z,100436.92
2023-05-02T04:47:45.896Z,100439.25
2023-05-02T04:50:12.590Z,100436.88
2023-05-02T04:52:39.302Z,100441.17
2023-05-02T04:55:07.003Z,100441.35
2023-05-02T04:57:33.736Z,100438.29
2023-05-02T05:00:01.751Z,100440.02
2023-05-02T05:02:29.337Z,100440.45
2023-05-02T05:04:57.285Z,100440.32
2023-05-02T05:07:25.719Z,100438.84
2023-05-02T05:09:53.518Z,100440.09
2023-05-02T05:12:22.210Z,100441.65
2023-05-02T05:14:50.541Z,100438.90
2023-05-02T05:17:18.510Z,100441.39
2023-05-02T05:19:45.374Z,100440.97
2023-05-02T05:22:12.713Z,100438.73
2023-05-02T05:24:39.479Z,100436.86
2023-05-02T05:27:06.693Z,100439.84
2023-05-02T05:29:33.409Z,100442.62
2023-05-02T05:32:00.286Z,100441.42
2023-05-02T05:34:27.893Z,100439.69
2023-05-02T05:36:57.652Z,100435.63
2023-05-02T05:39:25.332Z,100435.48
2023-05-02T05:41:54.645Z,100430.30
2023-05-02T05:44:22.314Z,100432.27
2023-05-02T05:46:49.203Z,100430.33
2023-05-02T05:49:17.110Z,100433.73
2023-05-02T05:51:44.167Z,100432.23
2023-05-02T05:54:11.529Z,100430.05
2023-05-02T05:56:38.519Z,100428.02
2023-05-02T05:59:09.452Z,100417.59
2023-05-02T06:01:36.662Z,100419.73
2023-05-02T06:04:05.345Z,100421.89
2023-05-02T06:06:34.057Z,100419.60
2023-05-02T06:09:01.265Z,100416.61
2023-05-02T06:11:28.679Z,100416.98
2023-05-02T06:13:56.657Z,100414.83
2023-05-02T06:16:23.746Z,100414.37
2023-05-02T06:18:51.559Z,100415.89
2023-05-02T06:21:18.433Z,100418.33
2023-05-02T06:23:46.093Z,100419.85
2023-05-02T06:26:12.877Z,100418.46
2023-05-02T06:28:39.689Z,100416.54
2023-05-02T06:31:06.523Z,100412.43
2023-05-02T06:33:33.604Z,100412.17
2023-05-02T06:36:01.865Z,100413.63
2023-05-02T06:38:28.852Z,100415.23
2023-05-02T06:40:55.929Z,100413.96
2023-05-02T06:43:22.775Z,100413.11
2023-05-02T06:45:52.210Z,100409.73
2023-05-02T06:48:18.918Z,100410.15
2023-05-02T06:50:45.745Z,100411.79
2023-05-02T06:53:12.435Z,100410.89
2023-05-02T06:55:39.054Z,100414.88
2023-05-02T06:58:05.702Z,100413.98
2023-05-02T07:00:32.534Z,100410.28
2023-05-02T07:02:59.284Z,100409.58
2023-05-02T07:05:26.018Z,100407.28
2023-05-02T07:07:52.712Z,100408.15
2023-05-02T07:10:19.470Z,100411.58
2023-05-02T07:12:46.154Z,100414.52
2023-05-02T07:15:13.930Z,100409.42
2023-05-02T07:17:41.091Z,100412.10
2023-05-02T07:20:08.838Z,100406.91
2023-05-02T07:22:35.496Z,100405.75
2023-05-02T07:25:02.601Z,100406.20
2023-05-02T07:27:29.288Z,100407.10
2023-05-02T07:29:56.010Z,100397.90
2023-05-02T07:32:22.859Z,100395.46
2023-05-02T07:34:49.597Z,100390.52
2023-05-02T07:37:16.508Z,100392.70
2023-05-02T07:39:43.327Z,100395.02
2023-05-02T07:42:10.079Z,100396.07
2023-05-02T07:44:36.928Z,100398.08
2023-05-02T07:47:03.638Z,100395.73
2023-05-02T07:49:31.412Z,100396.48
2023-05-02T07:51:58.183Z,100394.92
2023-05-02T07:54:27.977Z,100395.98
2023-05-02T07:56:57.626Z,100388.05
2023-05-02T07:59:24.262Z,100388.84
2023-05-02T08:01:50.918Z,100388.14
2023-05-02T08:04:17.776Z,100393.85
2023-05-02T08:06:45.329Z,100393.55
2023-05-02T08:09:12.112Z,100391.39
2023-05-02T08:11:38.841Z,100389.27
2023-05-02T08:14:05.534Z,100391.64
2023-05-02T08:16:32.331Z,100384.54
2023-05-02T08:18:59.080Z,100380.71
2023-05-02T08:21:26.062Z,100382.58
2023-05-02T08:23:52.713Z,100384.80
2023-05-02T08:26:21.932Z,100381.11
2023-05-02T08:28:48.593Z,100385.31
2023-05-02T08:31:15.339Z,100384.92
2023-05-02T08:33:42.153Z,100378.14
2023-05-02T08:36:13.277Z,100374.88
2023-05-02T08:38:39.982Z,100369.19
2023-05-02T08:41:14.001Z,100365.85
2023-05-02T08:43:41.025Z,100365.27
2023-05-02T08:46:08.543Z,100359.70
2023-05-02T08:48:37.113Z,100356.66
2023-05-02T08:51:04.443Z,100349.42
2023-05-02T08:53:32.510Z,100345.17
2023-05-02T08:56:00.373Z,100344.13
2023-05-02T08:58:27.120Z,100343.44
2023-05-02T09:00:53.906Z,100341.00
2023-05-02T09:03:34.003Z,100340.75
2023-05-02T09:06:13.002Z,100333.96
2023-05-02T09:08:43.550Z,100334.40
2023-05-02T09:11:11.117Z,100334.34
2023-05-02T09:13:38.522Z,100333.89
2023-05-02T09:16:10.114Z,100330.98
2023-05-02T09:18:49.755Z,100323.52
2023-05-02T09:21:20.574Z,100320.26
2023-05-02T09:23:49.948Z,100321.20
2023-05-02T09:26:20.389Z,100315.11
2023-05-02T09:28:48.914Z,100317.17
2023-05-02T09:33:53.508Z,100303.92
2023-05-02T09:36:21.240Z,100305.75
2023-05-02T09:38:49.250Z,100303.27
2023-05-02T09:41:18.003Z,100297.84
2023-05-02T09:43:55.442Z,100298.71
2023-05-02T09:46:22.219Z,100301.55
2023-05-02T09:48:56.168Z,100304.67
2023-05-02T09:51:24.143Z,100303.61
2023-05-02T09:53:50.994Z,100295.33
2023-05-02T09:56:17.814Z,100295.39
2023-05-02T09:58:44.731Z,100299.25
2023-05-02T10:01:18.835Z,100300.86
2023-05-02T10:03:47.950Z,100295.85
2023-05-02T10:06:15.730Z,100298.22
2023-05-02T10:08:42.504Z,100300.50
2023-05-02T10:11:09.204Z,100299.50
2023-05-02T10:13:37.305Z,100298.94
2023-05-02T10:16:04.890Z,100294.21
2023-05-02T10:18:43.923Z,100293.33
2023-05-02T10:21:11.769Z,100285.57
2023-05-02T10:23:43.835Z,100286.06
2023-05-02T10:26:15.082Z,100280.36
2023-05-02T10:28:42.544Z,100280.70
2023-05-02T10:31:13.374Z,100276.70
2023-05-02T10:33:40.266Z,100283.88
2023-05-02T10:36:08.524Z,100282.86
2023-05-02T10:38:36.006Z,100276.02
2023-05-02T10:41:15.230Z,100274.41
2023-05-02T10:43:42.075Z,100277.08
2023-05-02T10:46:34.338Z,100278.57
2023-05-02T10:49:08.099Z,100272.66
2023-05-02T10:51:36.443Z,100271.64
2023-05-02T10:54:25.218Z,100267.73
2023-05-02T10:57:05.826Z,100267.91
2023-05-02T10:59:39.972Z,100267.39
2023-05-02T11:02:30.997Z,100276.65
2023-05-02T11:05:05.292Z,100269.45
2023-05-02T11:08:23.152Z,100269.30
2023-05-02T11:10:50.263Z,100262.03
2023-05-02T11:13:16.993Z,100263.38
2023-05-02T11:15:43.750Z,100263.13
2023-05-02T11:18:14.540Z,100266.67
2023-05-02T11:20:44.760Z,100265.55
2023-05-02T11:23:26.248Z,100265.19
2023-05-02T11:25:56.847Z,100259.77
2023-05-02T11:28:48.195Z,100259.55
2023-05-02T11:31:27.910Z,100261.39
2023-05-02T11:34:01.558Z,100257.88
2023-05-02T11:36:29.662Z,100260.20
2023-05-02T11:38:56.585Z,100263.15
2023-05-02T11:41:23.554Z,100263.31
2023-05-02T11:44:03.513Z,100257.38
2023-05-02T11:46:30.838Z,100258.31
2023-05-02T11:48:57.729Z,100252.80
2023-05-02T11:51:24.458Z,100250.46
2023-05-02T11:53:51.515Z,100251.81
2023-05-02T11:56:18.183Z,100248.11
2023-05-02T11:58:47.149Z,100244.11
2023-05-02T12:01:17.560Z,100244.09
2023-05-02T12:03:45.071Z,100233.73
2023-05-02T12:06:13.607Z,100235.21
2023-05-02T12:08:41.727Z,100237.41
2023-05-02T12:11:09.296Z,100232.52
2023-05-02T12:13:36.200Z,100236.08
2023-05-02T12:16:03.110Z,100235.09
2023-05-02T12:18:30.049Z,100232.23
2023-05-02T12:20:56.751Z,100229.21
2023-05-02T12:23:24.417Z,100228.02
2023-05-02T12:25:51.164Z,100227.11
2023-05-02T12:28:18.857Z,100227.55
2023-05-02T12:30:47.920Z,100228.84
2023-05-02T12:33:14.649Z,100226.58
2023-05-02T12:35:41.444Z,100225.55
2023-05-02T12:38:18.821Z,100226.00
2023-05-02T12:40:52.478Z,100226.54
2023-05-02T12:43:19.656Z,100229.69
2023-05-02T12:45:48.450Z,100225.52
2023-05-02T12:48:18.709Z,100223.22
2023-05-02T12:50:45.432Z,100215.32
2023-05-02T12:53:12.189Z,100213.52
2023-05-02T12:55:38.905Z,100209.73
2023-05-02T12:58:06.989Z,100213.67
2023-05-02T13:00:36.658Z,100213.06
2023-05-02T13:03:03.751Z,100206.25
2023-05-02T13:05:30.711Z,100202.83
2023-05-02T13:07:58.516Z,100197.31
2023-05-02T13:10:26.198Z,100198.11
2023-05-02T13:12:52.965Z,100195.55
2023-05-02T13:15:19.890Z,100200.39
2023-05-02T13:17:46.805Z,100197.75
2023-05-02T13:20:13.671Z,100204.23
2023-05-02T13:22:40.341Z,100203.23
2023-05-02T13:25:07.722Z,100197.75
2023-05-02T13:27:34.547Z,100186.41
2023-05-02T13:30:06.772Z,100192.46
2023-05-02T13:32:35.639Z,100191.31
2023-05-02T13:35:03.795Z,100193.43
2023-05-02T13:37:30.570Z,100189.94
2023-05-02T13:39:57.292Z,100181.20
2023-05-02T13:42:24.006Z,100182.10
2023-05-02T13:44:50.838Z,100182.38
2023-05-02T13:47:17.493Z,100183.04
2023-05-02T13:49:44.253Z,100179.39
2023-05-02T13:52:11.208Z,100182.95
2023-05-02T13:54:38.049Z,100184.42
2023-05-02T13:57:05.616Z,100180.85
2023-05-02T13:59:32.301Z,100184.92
2023-05-02T14:01:59.021Z,100181.45
2023-05-02T14:04:26.058Z,100179.33
2023-05-02T14:06:52.927Z,100175.23
2023-05-02T14:09:20.688Z,100179.59
2023-05-02T14:11:48.560Z,100174.70
2023-05-02T14:14:15.395Z,100173.84
2023-05-02T14:16:42.660Z,100172.84
2023-05-02T14:19:09.399Z,100168.00
2023-05-02T14:21:38.507Z,100167.38
2023-05-02T14:24:06.604Z,100167.32
2023-05-02T14:26:33.443Z,100162.09
2023-05-02T14:29:00.814Z,100160.30
2023-05-02T14:31:31.178Z,100158.90
2023-05-02T14:33:57.922Z,100164.11
2023-05-02T14:36:24.575Z,100162.49
2023-05-02T14:38:51.353Z,100164.72
2023-05-02T14:41:18.066Z,100165.11
2023-05-02T14:43:45.138Z,100158.45
2023-05-02T14:46:12.016Z,100154.03
2023-05-02T14:48:38.802Z,100154.02
2023-05-02T14:51:05.797Z,100154.04
2023-05-02T14:53:32.629Z,100156.00
2023-05-02T14:55:59.393Z,100155.48
2023-05-02T14:58:26.242Z,100151.48
2023-05-02T15:00:52.975Z,100156.27
2023-05-02T15:03:19.886Z,100161.05
2023-05-02T15:05:46.703Z,100161.27
2023-05-02T15:08:13.451Z,100156.86
2023-05-02T15:10:40.208Z,100159.41
2023-05-02T15:13:07.576Z,100157.86
2023-05-02T15:15:34.724Z,100159.65
2023-05-02T15:18:01.556Z,100154.70
2023-05-02T15:20:28.220Z,100153.55
2023-05-02T15:22:55.037Z,100150.14
2023-05-02T15:25:21.754Z,100149.61
2023-05-02T15:27:48.533Z,100149.82
2023-05-02T15:30:17.773Z,100144.95
2023-05-02T15:32:44.742Z,100142.21
2023-05-02T15:35:11.935Z,100141.45
2023-05-02T15:37:38.579Z,100140.35
2023-05-02T15:40:06.884Z,100137.95
2023-05-02T15:42:36.803Z,100139.80
2023-05-02T15:45:04.222Z,100134.77
2023-05-02T15:47:30.961Z,100134.19
2023-05-02T15:49:58.556Z,100136.57
2023-05-02T15:52:25.337Z,100135.43
2023-05-02T15:54:52.672Z,100137.70
2023-05-02T15:57:19.846Z,100137.99
2023-05-02T15:59:46.641Z,100137.02
2023-05-02T16:02:13.406Z,100141.89
2023-05-02T16:04:40.212Z,100139.27
2023-05-02T16:07:07.011Z,100137.50
2023-05-02T16:09:33.753Z,100135.63
2023-05-02T16:12:01.635Z,100136.77
2023-05-02T16:14:29.087Z,100135.52
2023-05-02T16:16:59.659Z,100132.48
2023-05-02T16:19:26.764Z,100132.90
2023-05-02T16:21:53.435Z,100133.14
2023-05-02T16:24:20.142Z,100132.61
2023-05-02T16:26:46.838Z,100131.10
2023-05-02T16:29:13.576Z,100131.58
2023-05-02T16:34:07.364Z,100128.63
2023-05-02T16:36:34.293Z,100126.83
2023-05-02T16:39:01.173Z,100130.14
2023-05-02T16:41:27.934Z,100127.72
2023-05-02T16:43:55.056Z,100125.86
2023-05-02T16:46:21.958Z,100122.27
2023-05-02T16:48:48.781Z,100118.98
2023-05-02T16:51:15.500Z,100117.63
2023-05-02T16:53:43.644Z,100120.59
2023-05-02T16:56:10.438Z,100121.73
2023-05-02T16:58:37.219Z,100121.49
2023-05-02T17:01:05.439Z,100118.81
2023-05-02T17:03:32.294Z,100119.11
2023-05-02T17:06:01.241Z,100126.06
2023-05-02T17:08:28.259Z,100134.35
2023-05-02T17:10:55.037Z,100135.89
2023-05-02T17:13:21.690Z,100137.08
2023-05-02T17:15:48.730Z,100142.39
2023-05-02T17:18:15.730Z,100143.33
2023-05-02T17:20:42.810Z,100144.09
2023-05-02T17:23:09.936Z,100146.52
2023-05-02T17:25:36.710Z,100150.56
2023-05-02T17:28:03.422Z,100151.36
2023-05-02T17:30:30.745Z,100157.24
2023-05-02T17:32:58.882Z,100161.34
2023-05-02T17:35:25.983Z,100164.66
2023-05-02T17:37:52.764Z,100164.42
2023-05-02T17:40:19.766Z,100168.67
2023-05-02T17:42:46.829Z,100168.20
2023-05-02T17:45:13.724Z,100174.05
2023-05-02T17:47:40.761Z,100172.48
2023-05-02T17:50:08.782Z,100182.27
2023-05-02T17:52:35.610Z,100185.52
2023-05-02T17:55:02.474Z,100192.47
2023-05-02T17:57:29.245Z,100194.64
2023-05-02T18:00:00.111Z,100198.80
2023-05-02T18:02:27.719Z,100202.60
2023-05-02T18:04:54.822Z,100201.87
2023-05-02T18:07:23.924Z,100202.21
2023-05-02T18:09:51.694Z,100204.71
2023-05-02T18:12:19.089Z,100208.48
2023-05-02T18:14:45.975Z,100207.49
2023-05-02T18:17:12.959Z,100208.46
2023-05-02T18:19:39.805Z,100211.98
2023-05-02T18:22:07.338Z,100202.62
2023-05-02T18:24:34.156Z,100202.09
2023-05-02T18:27:00.837Z,100203.41
2023-05-02T18:29:27.841Z,100207.23
2023-05-02T18:31:54.909Z,100211.23
2023-05-02T18:34:21.715Z,100209.95
2023-05-02T18:36:48.748Z,100208.70
2023-05-02T18:39:16.218Z,100212.33
2023-05-02T18:41:42.924Z,100211.26
2023-05-02T18:44:11.516Z,100208.94
2023-05-02T18:46:38.624Z,100215.09
2023-05-02T18:49:07.116Z,100218.52
2023-05-02T18:51:33.785Z,100216.38
2023-05-02T18:54:00.611Z,100219.55
2023-05-02T18:56:28.175Z,100220.02
2023-05-02T18:58:56.660Z,100219.73
2023-05-02T19:01:23.815Z,100221.63
2023-05-02T19:03:52.509Z,100223.88
2023-05-02T19:06:20.442Z,100222.89
2023-05-02T19:08:47.891Z,100228.90
2023-05-02T19:11:14.643Z,100229.38
2023-05-02T19:13:41.383Z,100231.23
2023-05-02T19:16:12.734Z,100229.85
2023-05-02T19:18:39.990Z,100224.19
2023-05-02T19:21:12.627Z,100223.92
2023-05-02T19:23:40.639Z,100227.42
2023-05-02T19:26:11.866Z,100228.61
2023-05-02T19:28:38.695Z,100230.45
2023-05-02T19:31:31.807Z,100234.92
2023-05-02T19:33:58.494Z,100232.79
2023-05-02T19:36:25.323Z,100229.58
2023-05-02T19:38:53.728Z,100229.52
2023-05-02T19:41:21.332Z,100232.38
2023-05-02T19:43:48.008Z,100228.61
2023-05-02T19:46:15.123Z,100232.23
2023-05-02T19:48:41.945Z,100232.25
2023-05-02T19:51:08.733Z,100231.42
2023-05-02T19:53:36.056Z,100234.83
2023-05-02T19:56:03.953Z,100237.34
2023-05-02T19:58:31.119Z,100242.73
2023-05-02T20:00:57.960Z,100242.74
2023-05-02T20:03:25.533Z,100243.29
2023-05-02T20:05:52.491Z,100240.71
2023-05-02T20:08:19.754Z,100241.89
2023-05-02T20:10:47.362Z,100240.03
2023-05-02T20:13:14.051Z,100239.98
2023-05-02T20:15:40.826Z,100239.38
2023-05-02T20:18:07.947Z,100237.33
2023-05-02T20:20:34.701Z,100238.17
2023-05-02T20:23:01.454Z,100238.82
2023-05-02T20:25:28.700Z,100235.31
2023-05-02T20:27:55.415Z,100238.80
2023-05-02T20:30:22.321Z,100237.02
2023-05-02T20:32:49.079Z,100235.66
2023-05-02T20:35:16.257Z,100241.08
2023-05-02T20:37:42.930Z,100236.96
2023-05-02T20:40:10.273Z,100241.63
2023-05-02T20:42:39.019Z,100241.63
2023-05-02T20:45:12.260Z,100238.04
2023-05-02T20:47:39.401Z,100239.23
2023-05-02T20:50:10.767Z,100242.95
2023-05-02T20:52:40.512Z,100242.70
2023-05-02T20:55:08.026Z,100242.98
2023-05-02T20:57:35.033Z,100241.34
2023-05-02T21:00:02.778Z,100241.44
2023-05-02T21:02:30.116Z,100242.27
2023-05-02T21:04:56.959Z,100247.79
2023-05-02T21:07:23.653Z,100249.17
2023-05-02T21:09:50.737Z,100245.94
2023-05-02T21:12:17.462Z,100250.23
2023-05-02T21:14:44.141Z,100244.84
2023-05-02T21:17:11.072Z,100245.92
2023-05-02T21:19:37.796Z,100246.29
2023-05-02T21:22:04.676Z,100248.84
2023-05-02T21:24:31.519Z,100247.04
2023-05-02T21:26:58.564Z,100248.86
2023-05-02T21:29:25.415Z,100248.17
2023-05-02T21:31:54.119Z,100248.95
2023-05-02T21:34:21.470Z,100250.08
2023-05-02T21:36:48.220Z,100253.38
2023-05-02T21:39:16.281Z,100252.35
2023-05-02T21:41:42.982Z,100247.34
2023-05-02T21:44:11.012Z,100254.80
2023-05-02T21:46:37.730Z,100258.95
2023-05-02T21:49:04.520Z,100252.73
2023-05-02T21:51:31.766Z,100256.58
2023-05-02T21:53:58.414Z,100254.13
2023-05-02T21:56:25.362Z,100254.52
2023-05-02T21:58:52.016Z,100251.48
2023-05-02T22:01:19.022Z,100251.52
2023-05-02T22:03:46.507Z,100253.50
2023-05-02T22:06:13.525Z,100247.80
2023-05-02T22:08:40.403Z,100246.21
2023-05-02T22:11:10.042Z,100248.37
2023-05-02T22:13:37.051Z,100250.16
2023-05-02T22:16:04.177Z,100249.30
2023-05-02T22:18:31.109Z,100243.52
2023-05-02T22:20:58.693Z,100241.52
2023-05-02T22:23:25.522Z,100244.73
2023-05-02T22:25:52.378Z,100244.52
2023-05-02T22:28:19.055Z,100251.89
2023-05-02T22:30:46.141Z,100255.27
2023-05-02T22:33:14.163Z,100250.59
2023-05-02T22:35:41.116Z,100250.21
2023-05-02T22:38:10.947Z,100249.66
2023-05-02T22:40:37.700Z,100251.05
2023-05-02T22:43:04.448Z,100253.23
2023-05-02T22:45:31.244Z,100254.61
2023-05-02T22:47:57.981Z,100260.70
2023-05-02T22:50:26.299Z,100260.43
2023-05-02T22:52:57.286Z,100262.20
2023-05-02T22:55:24.222Z,100266.13
2023-05-02T22:57:51.093Z,100265.35
2023-05-02T23:00:17.819Z,100273.95
2023-05-02T23:02:45.107Z,100276.04
2023-05-02T23:05:11.996Z,100276.52
2023-05-02T23:07:38.794Z,100277.05
2023-05-02T23:10:06.556Z,100276.98
2023-05-02T23:12:33.222Z,100281.83
2023-05-02T23:15:00.163Z,100282.52
2023-05-02T23:17:26.856Z,100279.95
2023-05-02T23:19:53.579Z,100281.77
2023-05-02T23:25:14.974Z,100282.08
2023-05-02T23:27:41.752Z,100279.65
2023-05-02T23:30:08.928Z,100283.08
2023-05-02T23:32:36.228Z,100285.45
2023-05-02T23:35:04.109Z,100289.11
2023-05-02T23:37:30.974Z,100287.33
2023-05-02T23:39:58.199Z,100288.77
2023-05-02T23:42:25.071Z,100292.77
2023-05-02T23:44:53.758Z,100287.75
2023-05-02T23:47:22.881Z,100289.20
2023-05-02T23:49:49.807Z,100288.33
2023-05-02T23:52:16.519Z,100286.19
2023-05-02T23:54:43.742Z,100284.61
2023-05-02T23:57:10.405Z,100284.61
2023-05-02T23:59:37.113Z,100285.38
